sensor_id;sensor_type;location;lat;lon;timestamp;P1;durP1;ratioP1;P2;durP2;ratioP2
5890;SDS011;2971;52.420;7.080;2023-08-07T00:00:13;17.60;;;6.10;;
5890;SDS011;2971;52.420;7.080;2023-08-07T00:02:38;15.67;;;6.20;;
5890;SDS011;2971;52.420;7.080;2023-08-07T00:05:04;10.67;;;5.97;;
5890;SDS011;2971;52.420;7.080;2023-08-07T00:07:30;15.40;;;6.93;;
5890;SDS011;2971;52.420;7.080;2023-08-07T00:09:56;12.77;;;6.33;;
5890;SDS011;2971;52.420;7.080;2023-08-07T00:12:21;14.93;;;7.43;;
5890;SDS011;2971;52.420;7.080;2023-08-07T00:14:47;15.10;;;7.40;;
5890;SDS011;2971;52.420;7.080;2023-08-07T00:17:15;14.30;;;7.77;;
5890;SDS011;2971;52.420;7.080;2023-08-07T00:19:40;16.13;;;9.30;;
5890;SDS011;2971;52.420;7.080;2023-08-07T00:22:06;17.33;;;9.57;;
5890;SDS011;2971;52.420;7.080;2023-08-07T00:24:31;19.83;;;10.67;;
5890;SDS011;2971;52.420;7.080;2023-08-07T00:26:57;15.80;;;10.37;;
5890;SDS011;2971;52.420;7.080;2023-08-07T00:29:22;20.13;;;12.00;;
5890;SDS011;2971;52.420;7.080;2023-08-07T00:31:47;19.27;;;11.93;;
5890;SDS011;2971;52.420;7.080;2023-08-07T00:34:13;18.33;;;12.47;;
5890;SDS011;2971;52.420;7.080;2023-08-07T00:36:39;16.67;;;12.43;;
5890;SDS011;2971;52.420;7.080;2023-08-07T00:39:04;18.43;;;12.80;;
5890;SDS011;2971;52.420;7.080;2023-08-07T00:41:29;20.73;;;13.00;;
5890;SDS011;2971;52.420;7.080;2023-08-07T00:43:55;17.80;;;13.60;;
5890;SDS011;2971;52.420;7.080;2023-08-07T00:46:20;18.57;;;14.23;;
5890;SDS011;2971;52.420;7.080;2023-08-07T00:48:46;18.30;;;14.50;;
5890;SDS011;2971;52.420;7.080;2023-08-07T00:51:12;22.70;;;14.33;;
5890;SDS011;2971;52.420;7.080;2023-08-07T00:53:38;17.60;;;14.37;;
5890;SDS011;2971;52.420;7.080;2023-08-07T00:56:04;19.07;;;13.73;;
5890;SDS011;2971;52.420;7.080;2023-08-07T00:58:30;17.70;;;13.23;;
5890;SDS011;2971;52.420;7.080;2023-08-07T01:00:55;16.87;;;13.40;;
5890;SDS011;2971;52.420;7.080;2023-08-07T01:03:21;17.60;;;13.87;;
5890;SDS011;2971;52.420;7.080;2023-08-07T01:05:46;16.33;;;13.27;;
5890;SDS011;2971;52.420;7.080;2023-08-07T01:08:11;15.00;;;13.00;;
5890;SDS011;2971;52.420;7.080;2023-08-07T01:13:24;14.33;;;12.77;;
5890;SDS011;2971;52.420;7.080;2023-08-07T01:15:55;18.20;;;13.30;;
5890;SDS011;2971;52.420;7.080;2023-08-07T01:18:24;18.03;;;12.93;;
5890;SDS011;2971;52.420;7.080;2023-08-07T01:20:50;15.37;;;13.77;;
5890;SDS011;2971;52.420;7.080;2023-08-07T01:23:19;15.17;;;13.43;;
5890;SDS011;2971;52.420;7.080;2023-08-07T01:25:44;15.07;;;13.57;;
5890;SDS011;2971;52.420;7.080;2023-08-07T01:28:16;17.17;;;14.30;;
5890;SDS011;2971;52.420;7.080;2023-08-07T01:30:48;16.27;;;14.57;;
5890;SDS011;2971;52.420;7.080;2023-08-07T01:35:53;16.23;;;14.53;;
5890;SDS011;2971;52.420;7.080;2023-08-07T01:38:21;16.00;;;14.30;;
5890;SDS011;2971;52.420;7.080;2023-08-07T01:40:49;15.10;;;13.60;;
5890;SDS011;2971;52.420;7.080;2023-08-07T01:43:16;15.10;;;13.60;;
5890;SDS011;2971;52.420;7.080;2023-08-07T01:45:41;15.83;;;14.27;;
5890;SDS011;2971;52.420;7.080;2023-08-07T01:48:07;15.20;;;13.60;;
5890;SDS011;2971;52.420;7.080;2023-08-07T01:50:32;15.43;;;13.93;;
5890;SDS011;2971;52.420;7.080;2023-08-07T01:52:58;14.80;;;13.40;;
5890;SDS011;2971;52.420;7.080;2023-08-07T01:55:23;13.83;;;12.47;;
5890;SDS011;2971;52.420;7.080;2023-08-07T01:57:49;14.97;;;13.10;;
5890;SDS011;2971;52.420;7.080;2023-08-07T02:00:14;13.40;;;12.00;;
5890;SDS011;2971;52.420;7.080;2023-08-07T02:02:40;14.27;;;12.43;;
5890;SDS011;2971;52.420;7.080;2023-08-07T02:05:05;12.90;;;11.60;;
5890;SDS011;2971;52.420;7.080;2023-08-07T02:07:32;12.60;;;11.40;;
5890;SDS011;2971;52.420;7.080;2023-08-07T02:09:57;12.30;;;11.00;;
5890;SDS011;2971;52.420;7.080;2023-08-07T02:12:23;12.83;;;11.53;;
5890;SDS011;2971;52.420;7.080;2023-08-07T02:14:50;12.83;;;11.63;;
5890;SDS011;2971;52.420;7.080;2023-08-07T02:17:16;12.77;;;11.33;;
5890;SDS011;2971;52.420;7.080;2023-08-07T02:19:41;13.13;;;10.67;;
5890;SDS011;2971;52.420;7.080;2023-08-07T02:22:08;12.63;;;10.30;;
5890;SDS011;2971;52.420;7.080;2023-08-07T02:24:33;13.47;;;10.03;;
5890;SDS011;2971;52.420;7.080;2023-08-07T02:26:59;10.77;;;9.67;;
5890;SDS011;2971;52.420;7.080;2023-08-07T02:29:24;11.00;;;9.90;;
5890;SDS011;2971;52.420;7.080;2023-08-07T02:31:49;12.73;;;10.57;;
5890;SDS011;2971;52.420;7.080;2023-08-07T02:34:15;14.93;;;9.77;;
5890;SDS011;2971;52.420;7.080;2023-08-07T02:36:40;10.50;;;9.40;;
5890;SDS011;2971;52.420;7.080;2023-08-07T02:39:06;15.20;;;9.00;;
5890;SDS011;2971;52.420;7.080;2023-08-07T02:41:31;14.90;;;9.20;;
5890;SDS011;2971;52.420;7.080;2023-08-07T02:43:57;15.50;;;8.70;;
5890;SDS011;2971;52.420;7.080;2023-08-07T02:46:22;17.47;;;8.93;;
5890;SDS011;2971;52.420;7.080;2023-08-07T02:48:48;13.90;;;8.50;;
5890;SDS011;2971;52.420;7.080;2023-08-07T02:51:13;12.73;;;8.07;;
5890;SDS011;2971;52.420;7.080;2023-08-07T02:53:39;16.23;;;8.30;;
5890;SDS011;2971;52.420;7.080;2023-08-07T02:56:04;12.53;;;7.50;;
5890;SDS011;2971;52.420;7.080;2023-08-07T02:58:30;14.17;;;7.30;;
5890;SDS011;2971;52.420;7.080;2023-08-07T03:00:55;15.60;;;7.60;;
5890;SDS011;2971;52.420;7.080;2023-08-07T03:03:21;12.97;;;6.90;;
5890;SDS011;2971;52.420;7.080;2023-08-07T03:05:48;11.57;;;6.80;;
5890;SDS011;2971;52.420;7.080;2023-08-07T03:08:16;16.27;;;7.10;;
5890;SDS011;2971;52.420;7.080;2023-08-07T03:10:42;16.23;;;6.30;;
5890;SDS011;2971;52.420;7.080;2023-08-07T03:13:21;13.73;;;6.17;;
5890;SDS011;2971;52.420;7.080;2023-08-07T03:15:47;13.70;;;6.40;;
5890;SDS011;2971;52.420;7.080;2023-08-07T03:18:15;12.23;;;5.97;;
5890;SDS011;2971;52.420;7.080;2023-08-07T03:20:40;13.70;;;5.80;;
5890;SDS011;2971;52.420;7.080;2023-08-07T03:23:06;10.77;;;5.27;;
5890;SDS011;2971;52.420;7.080;2023-08-07T03:25:32;14.47;;;5.50;;
5890;SDS011;2971;52.420;7.080;2023-08-07T03:27:57;11.53;;;5.30;;
5890;SDS011;2971;52.420;7.080;2023-08-07T03:30:23;10.00;;;5.33;;
5890;SDS011;2971;52.420;7.080;2023-08-07T03:32:48;9.17;;;4.70;;
5890;SDS011;2971;52.420;7.080;2023-08-07T03:35:15;15.93;;;5.40;;
5890;SDS011;2971;52.420;7.080;2023-08-07T03:37:41;14.93;;;5.20;;
5890;SDS011;2971;52.420;7.080;2023-08-07T03:40:07;10.27;;;4.27;;
5890;SDS011;2971;52.420;7.080;2023-08-07T03:42:32;12.47;;;4.70;;
5890;SDS011;2971;52.420;7.080;2023-08-07T03:44:58;12.57;;;4.87;;
5890;SDS011;2971;52.420;7.080;2023-08-07T03:47:23;9.67;;;4.30;;
5890;SDS011;2971;52.420;7.080;2023-08-07T03:49:49;10.10;;;3.87;;
5890;SDS011;2971;52.420;7.080;2023-08-07T03:52:14;11.23;;;4.50;;
5890;SDS011;2971;52.420;7.080;2023-08-07T03:54:40;9.57;;;3.73;;
5890;SDS011;2971;52.420;7.080;2023-08-07T03:57:05;9.53;;;3.77;;
5890;SDS011;2971;52.420;7.080;2023-08-07T03:59:31;8.70;;;3.37;;
5890;SDS011;2971;52.420;7.080;2023-08-07T04:01:56;10.50;;;3.73;;
5890;SDS011;2971;52.420;7.080;2023-08-07T04:04:21;8.97;;;3.80;;
5890;SDS011;2971;52.420;7.080;2023-08-07T04:06:47;6.63;;;3.13;;
5890;SDS011;2971;52.420;7.080;2023-08-07T04:09:12;8.77;;;3.27;;
5890;SDS011;2971;52.420;7.080;2023-08-07T04:11:38;8.43;;;3.50;;
5890;SDS011;2971;52.420;7.080;2023-08-07T04:14:03;9.30;;;3.63;;
5890;SDS011;2971;52.420;7.080;2023-08-07T04:16:32;8.10;;;3.30;;
5890;SDS011;2971;52.420;7.080;2023-08-07T04:18:57;8.83;;;3.40;;
5890;SDS011;2971;52.420;7.080;2023-08-07T04:21:22;5.93;;;3.20;;
5890;SDS011;2971;52.420;7.080;2023-08-07T04:23:48;10.80;;;3.70;;
5890;SDS011;2971;52.420;7.080;2023-08-07T04:26:13;7.40;;;3.43;;
5890;SDS011;2971;52.420;7.080;2023-08-07T04:28:39;9.13;;;3.73;;
5890;SDS011;2971;52.420;7.080;2023-08-07T04:31:05;10.77;;;3.80;;
5890;SDS011;2971;52.420;7.080;2023-08-07T04:33:30;7.03;;;3.40;;
5890;SDS011;2971;52.420;7.080;2023-08-07T04:35:55;12.10;;;3.70;;
5890;SDS011;2971;52.420;7.080;2023-08-07T04:38:21;7.83;;;3.60;;
5890;SDS011;2971;52.420;7.080;2023-08-07T04:40:47;9.40;;;3.73;;
5890;SDS011;2971;52.420;7.080;2023-08-07T04:43:14;9.03;;;3.90;;
5890;SDS011;2971;52.420;7.080;2023-08-07T04:45:41;11.00;;;4.20;;
5890;SDS011;2971;52.420;7.080;2023-08-07T04:48:07;11.70;;;3.90;;
5890;SDS011;2971;52.420;7.080;2023-08-07T04:50:32;10.57;;;4.07;;
5890;SDS011;2971;52.420;7.080;2023-08-07T04:52:58;10.17;;;4.30;;
5890;SDS011;2971;52.420;7.080;2023-08-07T04:55:23;9.23;;;4.00;;
5890;SDS011;2971;52.420;7.080;2023-08-07T04:57:49;9.63;;;4.17;;
5890;SDS011;2971;52.420;7.080;2023-08-07T05:00:16;11.27;;;4.73;;
5890;SDS011;2971;52.420;7.080;2023-08-07T05:02:42;11.40;;;4.60;;
5890;SDS011;2971;52.420;7.080;2023-08-07T05:05:07;14.00;;;4.60;;
5890;SDS011;2971;52.420;7.080;2023-08-07T05:07:34;13.07;;;4.60;;
5890;SDS011;2971;52.420;7.080;2023-08-07T05:10:01;10.77;;;4.83;;
5890;SDS011;2971;52.420;7.080;2023-08-07T05:12:27;10.53;;;4.47;;
5890;SDS011;2971;52.420;7.080;2023-08-07T05:14:52;12.70;;;4.57;;
5890;SDS011;2971;52.420;7.080;2023-08-07T05:17:17;12.30;;;4.93;;
5890;SDS011;2971;52.420;7.080;2023-08-07T05:19:43;12.83;;;4.80;;
5890;SDS011;2971;52.420;7.080;2023-08-07T05:22:09;10.80;;;4.53;;
5890;SDS011;2971;52.420;7.080;2023-08-07T05:24:34;10.53;;;4.40;;
5890;SDS011;2971;52.420;7.080;2023-08-07T05:27:10;11.57;;;4.80;;
5890;SDS011;2971;52.420;7.080;2023-08-07T05:29:36;11.30;;;4.33;;
5890;SDS011;2971;52.420;7.080;2023-08-07T05:32:13;13.57;;;4.67;;
5890;SDS011;2971;52.420;7.080;2023-08-07T05:34:39;10.90;;;4.87;;
5890;SDS011;2971;52.420;7.080;2023-08-07T05:37:05;9.43;;;4.20;;
5890;SDS011;2971;52.420;7.080;2023-08-07T05:39:31;10.43;;;4.47;;
5890;SDS011;2971;52.420;7.080;2023-08-07T05:41:57;8.33;;;4.30;;
5890;SDS011;2971;52.420;7.080;2023-08-07T05:44:24;9.57;;;4.30;;
5890;SDS011;2971;52.420;7.080;2023-08-07T05:46:50;8.73;;;4.40;;
5890;SDS011;2971;52.420;7.080;2023-08-07T05:49:15;10.53;;;4.17;;
5890;SDS011;2971;52.420;7.080;2023-08-07T05:51:41;10.87;;;4.03;;
5890;SDS011;2971;52.420;7.080;2023-08-07T05:54:06;13.37;;;4.40;;
5890;SDS011;2971;52.420;7.080;2023-08-07T05:56:32;9.97;;;4.10;;
5890;SDS011;2971;52.420;7.080;2023-08-07T05:58:57;10.07;;;4.37;;
5890;SDS011;2971;52.420;7.080;2023-08-07T06:01:23;9.50;;;4.20;;
5890;SDS011;2971;52.420;7.080;2023-08-07T06:03:54;9.80;;;4.10;;
5890;SDS011;2971;52.420;7.080;2023-08-07T06:06:20;7.70;;;4.07;;
5890;SDS011;2971;52.420;7.080;2023-08-07T06:08:45;9.57;;;4.40;;
5890;SDS011;2971;52.420;7.080;2023-08-07T06:11:11;8.40;;;4.10;;
5890;SDS011;2971;52.420;7.080;2023-08-07T06:13:37;9.83;;;4.03;;
5890;SDS011;2971;52.420;7.080;2023-08-07T06:16:02;10.70;;;4.67;;
5890;SDS011;2971;52.420;7.080;2023-08-07T06:18:27;7.87;;;4.37;;
5890;SDS011;2971;52.420;7.080;2023-08-07T06:20:53;8.57;;;4.20;;
5890;SDS011;2971;52.420;7.080;2023-08-07T06:23:18;10.03;;;3.90;;
5890;SDS011;2971;52.420;7.080;2023-08-07T06:25:44;9.57;;;3.90;;
5890;SDS011;2971;52.420;7.080;2023-08-07T06:28:09;8.73;;;3.90;;
5890;SDS011;2971;52.420;7.080;2023-08-07T06:30:34;9.87;;;4.10;;
5890;SDS011;2971;52.420;7.080;2023-08-07T06:33:00;10.73;;;4.03;;
5890;SDS011;2971;52.420;7.080;2023-08-07T06:35:25;10.50;;;3.97;;
5890;SDS011;2971;52.420;7.080;2023-08-07T06:37:51;8.60;;;3.83;;
5890;SDS011;2971;52.420;7.080;2023-08-07T06:40:16;8.03;;;4.00;;
5890;SDS011;2971;52.420;7.080;2023-08-07T06:42:42;10.90;;;4.10;;
5890;SDS011;2971;52.420;7.080;2023-08-07T06:45:07;7.73;;;3.73;;
5890;SDS011;2971;52.420;7.080;2023-08-07T06:47:33;7.93;;;3.90;;
5890;SDS011;2971;52.420;7.080;2023-08-07T06:49:58;9.13;;;4.03;;
5890;SDS011;2971;52.420;7.080;2023-08-07T06:52:24;9.27;;;3.70;;
5890;SDS011;2971;52.420;7.080;2023-08-07T06:54:49;10.03;;;4.63;;
5890;SDS011;2971;52.420;7.080;2023-08-07T06:57:14;10.07;;;4.53;;
5890;SDS011;2971;52.420;7.080;2023-08-07T06:59:40;9.80;;;4.53;;
5890;SDS011;2971;52.420;7.080;2023-08-07T07:02:06;9.80;;;4.87;;
5890;SDS011;2971;52.420;7.080;2023-08-07T07:04:31;9.13;;;4.90;;
5890;SDS011;2971;52.420;7.080;2023-08-07T07:06:58;13.13;;;5.80;;
5890;SDS011;2971;52.420;7.080;2023-08-07T07:09:23;12.80;;;5.60;;
5890;SDS011;2971;52.420;7.080;2023-08-07T07:11:49;12.53;;;5.33;;
5890;SDS011;2971;52.420;7.080;2023-08-07T07:14:14;13.40;;;5.17;;
5890;SDS011;2971;52.420;7.080;2023-08-07T07:16:40;10.57;;;5.27;;
5890;SDS011;2971;52.420;7.080;2023-08-07T07:19:07;11.83;;;4.70;;
5890;SDS011;2971;52.420;7.080;2023-08-07T07:21:34;10.30;;;5.10;;
5890;SDS011;2971;52.420;7.080;2023-08-07T07:23:59;12.50;;;5.23;;
5890;SDS011;2971;52.420;7.080;2023-08-07T07:26:25;10.67;;;5.07;;
5890;SDS011;2971;52.420;7.080;2023-08-07T07:28:51;12.77;;;5.13;;
5890;SDS011;2971;52.420;7.080;2023-08-07T07:31:16;16.17;;;5.23;;
5890;SDS011;2971;52.420;7.080;2023-08-07T07:33:42;12.93;;;4.77;;
5890;SDS011;2971;52.420;7.080;2023-08-07T07:36:07;12.97;;;4.90;;
5890;SDS011;2971;52.420;7.080;2023-08-07T07:38:39;12.90;;;4.63;;
5890;SDS011;2971;52.420;7.080;2023-08-07T07:41:05;14.00;;;5.40;;
5890;SDS011;2971;52.420;7.080;2023-08-07T07:43:34;10.13;;;4.50;;
5890;SDS011;2971;52.420;7.080;2023-08-07T07:46:00;9.93;;;4.73;;
5890;SDS011;2971;52.420;7.080;2023-08-07T07:48:25;10.23;;;4.50;;
5890;SDS011;2971;52.420;7.080;2023-08-07T07:50:51;11.40;;;4.47;;
5890;SDS011;2971;52.420;7.080;2023-08-07T07:53:18;11.73;;;5.03;;
5890;SDS011;2971;52.420;7.080;2023-08-07T07:55:46;12.37;;;4.97;;
5890;SDS011;2971;52.420;7.080;2023-08-07T07:58:12;9.03;;;4.40;;
5890;SDS011;2971;52.420;7.080;2023-08-07T08:00:38;11.40;;;4.93;;
5890;SDS011;2971;52.420;7.080;2023-08-07T08:03:03;11.83;;;5.17;;
5890;SDS011;2971;52.420;7.080;2023-08-07T08:05:29;13.73;;;5.60;;
5890;SDS011;2971;52.420;7.080;2023-08-07T08:07:54;10.90;;;5.10;;
5890;SDS011;2971;52.420;7.080;2023-08-07T08:10:20;12.83;;;5.83;;
5890;SDS011;2971;52.420;7.080;2023-08-07T08:12:45;12.17;;;5.67;;
5890;SDS011;2971;52.420;7.080;2023-08-07T08:15:10;11.90;;;5.70;;
5890;SDS011;2971;52.420;7.080;2023-08-07T08:17:36;14.50;;;6.13;;
5890;SDS011;2971;52.420;7.080;2023-08-07T08:20:01;13.97;;;6.10;;
5890;SDS011;2971;52.420;7.080;2023-08-07T08:22:27;13.73;;;5.57;;
5890;SDS011;2971;52.420;7.080;2023-08-07T08:24:52;12.47;;;5.73;;
5890;SDS011;2971;52.420;7.080;2023-08-07T08:27:18;7.40;;;4.60;;
5890;SDS011;2971;52.420;7.080;2023-08-07T08:29:43;10.60;;;4.47;;
5890;SDS011;2971;52.420;7.080;2023-08-07T08:32:10;11.40;;;4.60;;
5890;SDS011;2971;52.420;7.080;2023-08-07T08:34:35;11.70;;;4.60;;
5890;SDS011;2971;52.420;7.080;2023-08-07T08:37:01;9.20;;;3.97;;
5890;SDS011;2971;52.420;7.080;2023-08-07T08:39:26;9.37;;;4.10;;
5890;SDS011;2971;52.420;7.080;2023-08-07T08:41:51;7.87;;;3.23;;
5890;SDS011;2971;52.420;7.080;2023-08-07T08:44:17;11.90;;;3.60;;
5890;SDS011;2971;52.420;7.080;2023-08-07T08:46:45;9.83;;;3.67;;
5890;SDS011;2971;52.420;7.080;2023-08-07T08:49:11;7.77;;;3.50;;
5890;SDS011;2971;52.420;7.080;2023-08-07T08:51:41;7.10;;;3.17;;
5890;SDS011;2971;52.420;7.080;2023-08-07T08:54:06;6.27;;;3.27;;
5890;SDS011;2971;52.420;7.080;2023-08-07T08:56:32;8.07;;;3.30;;
5890;SDS011;2971;52.420;7.080;2023-08-07T08:58:58;7.40;;;2.97;;
5890;SDS011;2971;52.420;7.080;2023-08-07T09:01:23;9.00;;;3.63;;
5890;SDS011;2971;52.420;7.080;2023-08-07T09:03:49;7.60;;;3.40;;
5890;SDS011;2971;52.420;7.080;2023-08-07T09:06:17;7.63;;;3.40;;
5890;SDS011;2971;52.420;7.080;2023-08-07T09:08:43;8.07;;;3.40;;
5890;SDS011;2971;52.420;7.080;2023-08-07T09:11:09;7.93;;;3.20;;
5890;SDS011;2971;52.420;7.080;2023-08-07T09:13:39;8.70;;;3.47;;
5890;SDS011;2971;52.420;7.080;2023-08-07T09:16:06;5.83;;;3.50;;
5890;SDS011;2971;52.420;7.080;2023-08-07T09:18:33;6.73;;;3.60;;
5890;SDS011;2971;52.420;7.080;2023-08-07T09:20:59;10.07;;;3.70;;
5890;SDS011;2971;52.420;7.080;2023-08-07T09:23:25;7.33;;;3.60;;
5890;SDS011;2971;52.420;7.080;2023-08-07T09:26:00;7.40;;;3.60;;
5890;SDS011;2971;52.420;7.080;2023-08-07T09:28:27;8.33;;;3.67;;
5890;SDS011;2971;52.420;7.080;2023-08-07T09:30:53;8.43;;;3.53;;
5890;SDS011;2971;52.420;7.080;2023-08-07T09:33:25;9.50;;;4.20;;
5890;SDS011;2971;52.420;7.080;2023-08-07T09:35:51;10.27;;;4.10;;
5890;SDS011;2971;52.420;7.080;2023-08-07T09:38:17;6.93;;;3.77;;
5890;SDS011;2971;52.420;7.080;2023-08-07T09:40:43;12.47;;;4.67;;
5890;SDS011;2971;52.420;7.080;2023-08-07T09:43:08;10.83;;;4.57;;
5890;SDS011;2971;52.420;7.080;2023-08-07T09:45:35;10.40;;;5.07;;
5890;SDS011;2971;52.420;7.080;2023-08-07T09:48:02;8.77;;;4.60;;
5890;SDS011;2971;52.420;7.080;2023-08-07T09:50:29;12.57;;;5.07;;
5890;SDS011;2971;52.420;7.080;2023-08-07T09:52:56;9.47;;;4.73;;
5890;SDS011;2971;52.420;7.080;2023-08-07T09:55:22;12.37;;;4.70;;
5890;SDS011;2971;52.420;7.080;2023-08-07T09:57:48;11.07;;;4.93;;
5890;SDS011;2971;52.420;7.080;2023-08-07T10:00:14;10.90;;;5.10;;
5890;SDS011;2971;52.420;7.080;2023-08-07T10:02:41;9.87;;;4.90;;
5890;SDS011;2971;52.420;7.080;2023-08-07T10:05:10;12.20;;;4.87;;
5890;SDS011;2971;52.420;7.080;2023-08-07T10:07:37;11.50;;;4.80;;
5890;SDS011;2971;52.420;7.080;2023-08-07T10:10:03;9.70;;;4.30;;
5890;SDS011;2971;52.420;7.080;2023-08-07T10:12:29;9.67;;;4.17;;
5890;SDS011;2971;52.420;7.080;2023-08-07T10:14:55;10.77;;;4.23;;
5890;SDS011;2971;52.420;7.080;2023-08-07T10:17:23;10.27;;;3.93;;
5890;SDS011;2971;52.420;7.080;2023-08-07T10:19:50;11.73;;;4.33;;
5890;SDS011;2971;52.420;7.080;2023-08-07T10:22:21;9.00;;;4.10;;
5890;SDS011;2971;52.420;7.080;2023-08-07T10:24:49;9.70;;;4.03;;
5890;SDS011;2971;52.420;7.080;2023-08-07T10:27:15;8.17;;;3.90;;
5890;SDS011;2971;52.420;7.080;2023-08-07T10:29:42;9.20;;;3.40;;
5890;SDS011;2971;52.420;7.080;2023-08-07T10:32:09;10.77;;;4.20;;
5890;SDS011;2971;52.420;7.080;2023-08-07T10:34:36;9.73;;;4.10;;
5890;SDS011;2971;52.420;7.080;2023-08-07T10:37:02;9.93;;;3.77;;
5890;SDS011;2971;52.420;7.080;2023-08-07T10:39:31;9.47;;;3.90;;
5890;SDS011;2971;52.420;7.080;2023-08-07T10:41:56;6.80;;;3.03;;
5890;SDS011;2971;52.420;7.080;2023-08-07T10:44:23;10.43;;;3.17;;
5890;SDS011;2971;52.420;7.080;2023-08-07T10:46:53;9.23;;;3.50;;
5890;SDS011;2971;52.420;7.080;2023-08-07T10:54:40;8.90;;;3.33;;
5890;SDS011;2971;52.420;7.080;2023-08-07T10:57:10;7.17;;;3.23;;
5890;SDS011;2971;52.420;7.080;2023-08-07T10:59:37;8.10;;;2.97;;
5890;SDS011;2971;52.420;7.080;2023-08-07T11:02:03;7.10;;;3.33;;
5890;SDS011;2971;52.420;7.080;2023-08-07T11:04:33;7.67;;;3.17;;
5890;SDS011;2971;52.420;7.080;2023-08-07T11:07:01;8.73;;;3.53;;
5890;SDS011;2971;52.420;7.080;2023-08-07T11:09:27;8.60;;;3.63;;
5890;SDS011;2971;52.420;7.080;2023-08-07T11:11:52;6.80;;;3.70;;
5890;SDS011;2971;52.420;7.080;2023-08-07T11:14:18;5.63;;;3.00;;
5890;SDS011;2971;52.420;7.080;2023-08-07T11:16:45;6.20;;;2.97;;
5890;SDS011;2971;52.420;7.080;2023-08-07T11:19:12;6.73;;;2.97;;
5890;SDS011;2971;52.420;7.080;2023-08-07T11:21:38;7.17;;;3.50;;
5890;SDS011;2971;52.420;7.080;2023-08-07T11:24:05;8.30;;;3.60;;
5890;SDS011;2971;52.420;7.080;2023-08-07T11:26:32;6.97;;;3.27;;
5890;SDS011;2971;52.420;7.080;2023-08-07T11:28:57;6.60;;;2.77;;
5890;SDS011;2971;52.420;7.080;2023-08-07T11:31:23;7.33;;;3.50;;
5890;SDS011;2971;52.420;7.080;2023-08-07T11:33:50;7.83;;;3.40;;
5890;SDS011;2971;52.420;7.080;2023-08-07T11:36:16;7.37;;;3.50;;
5890;SDS011;2971;52.420;7.080;2023-08-07T11:38:42;6.20;;;3.13;;
5890;SDS011;2971;52.420;7.080;2023-08-07T11:41:08;6.80;;;3.40;;
5890;SDS011;2971;52.420;7.080;2023-08-07T11:43:35;9.43;;;3.60;;
5890;SDS011;2971;52.420;7.080;2023-08-07T11:46:02;6.87;;;3.50;;
5890;SDS011;2971;52.420;7.080;2023-08-07T11:48:32;9.20;;;3.70;;
5890;SDS011;2971;52.420;7.080;2023-08-07T11:50:59;7.30;;;3.40;;
5890;SDS011;2971;52.420;7.080;2023-08-07T11:53:25;8.80;;;3.60;;
5890;SDS011;2971;52.420;7.080;2023-08-07T11:55:52;10.13;;;3.90;;
5890;SDS011;2971;52.420;7.080;2023-08-07T11:58:21;8.53;;;3.63;;
5890;SDS011;2971;52.420;7.080;2023-08-07T12:00:47;8.67;;;3.70;;
5890;SDS011;2971;52.420;7.080;2023-08-07T12:06:04;8.87;;;3.63;;
5890;SDS011;2971;52.420;7.080;2023-08-07T12:08:31;8.30;;;3.30;;
5890;SDS011;2971;52.420;7.080;2023-08-07T12:11:06;7.53;;;3.33;;
5890;SDS011;2971;52.420;7.080;2023-08-07T12:13:32;7.77;;;2.77;;
5890;SDS011;2971;52.420;7.080;2023-08-07T12:16:00;6.53;;;2.77;;
5890;SDS011;2971;52.420;7.080;2023-08-07T12:18:26;4.83;;;2.80;;
5890;SDS011;2971;52.420;7.080;2023-08-07T12:20:52;6.43;;;3.03;;
5890;SDS011;2971;52.420;7.080;2023-08-07T12:23:21;7.07;;;3.10;;
5890;SDS011;2971;52.420;7.080;2023-08-07T12:25:47;7.03;;;2.63;;
5890;SDS011;2971;52.420;7.080;2023-08-07T12:28:12;5.60;;;2.90;;
5890;SDS011;2971;52.420;7.080;2023-08-07T12:30:38;7.07;;;3.27;;
5890;SDS011;2971;52.420;7.080;2023-08-07T12:33:04;6.37;;;3.03;;
5890;SDS011;2971;52.420;7.080;2023-08-07T12:35:30;7.57;;;3.23;;
5890;SDS011;2971;52.420;7.080;2023-08-07T12:37:56;6.40;;;2.93;;
5890;SDS011;2971;52.420;7.080;2023-08-07T12:40:21;6.93;;;3.20;;
5890;SDS011;2971;52.420;7.080;2023-08-07T12:42:48;6.50;;;3.17;;
5890;SDS011;2971;52.420;7.080;2023-08-07T12:45:16;7.60;;;3.40;;
5890;SDS011;2971;52.420;7.080;2023-08-07T12:47:44;6.23;;;2.80;;
5890;SDS011;2971;52.420;7.080;2023-08-07T12:50:09;6.47;;;2.73;;
5890;SDS011;2971;52.420;7.080;2023-08-07T12:52:35;6.87;;;2.43;;
5890;SDS011;2971;52.420;7.080;2023-08-07T12:55:00;5.33;;;2.40;;
5890;SDS011;2971;52.420;7.080;2023-08-07T12:57:26;8.23;;;2.87;;
5890;SDS011;2971;52.420;7.080;2023-08-07T12:59:51;5.03;;;2.80;;
5890;SDS011;2971;52.420;7.080;2023-08-07T13:02:17;6.43;;;2.60;;
5890;SDS011;2971;52.420;7.080;2023-08-07T13:04:43;5.60;;;2.70;;
5890;SDS011;2971;52.420;7.080;2023-08-07T13:07:08;5.87;;;2.70;;
5890;SDS011;2971;52.420;7.080;2023-08-07T13:09:34;5.93;;;2.27;;
5890;SDS011;2971;52.420;7.080;2023-08-07T13:11:59;4.63;;;2.40;;
5890;SDS011;2971;52.420;7.080;2023-08-07T13:14:24;5.17;;;2.63;;
5890;SDS011;2971;52.420;7.080;2023-08-07T13:16:50;4.77;;;2.47;;
5890;SDS011;2971;52.420;7.080;2023-08-07T13:19:16;4.10;;;2.30;;
5890;SDS011;2971;52.420;7.080;2023-08-07T13:21:41;5.00;;;2.87;;
5890;SDS011;2971;52.420;7.080;2023-08-07T13:24:07;4.63;;;2.80;;
5890;SDS011;2971;52.420;7.080;2023-08-07T13:26:32;3.67;;;2.57;;
5890;SDS011;2971;52.420;7.080;2023-08-07T13:28:57;6.47;;;2.47;;
5890;SDS011;2971;52.420;7.080;2023-08-07T13:31:23;4.43;;;2.30;;
5890;SDS011;2971;52.420;7.080;2023-08-07T13:33:48;6.77;;;2.50;;
5890;SDS011;2971;52.420;7.080;2023-08-07T13:36:14;5.13;;;2.90;;
5890;SDS011;2971;52.420;7.080;2023-08-07T13:38:39;5.83;;;2.80;;
5890;SDS011;2971;52.420;7.080;2023-08-07T13:41:04;5.47;;;2.50;;
5890;SDS011;2971;52.420;7.080;2023-08-07T13:43:30;5.60;;;2.53;;
5890;SDS011;2971;52.420;7.080;2023-08-07T13:45:55;6.47;;;2.53;;
5890;SDS011;2971;52.420;7.080;2023-08-07T13:48:21;4.97;;;2.33;;
5890;SDS011;2971;52.420;7.080;2023-08-07T13:50:46;5.93;;;2.70;;
5890;SDS011;2971;52.420;7.080;2023-08-07T13:53:12;4.37;;;2.43;;
5890;SDS011;2971;52.420;7.080;2023-08-07T13:55:37;6.10;;;2.30;;
5890;SDS011;2971;52.420;7.080;2023-08-07T13:58:03;4.03;;;2.20;;
5890;SDS011;2971;52.420;7.080;2023-08-07T14:00:29;3.73;;;2.27;;
5890;SDS011;2971;52.420;7.080;2023-08-07T14:02:54;4.00;;;2.10;;
5890;SDS011;2971;52.420;7.080;2023-08-07T14:05:20;5.93;;;2.13;;
5890;SDS011;2971;52.420;7.080;2023-08-07T14:07:45;4.00;;;2.50;;
5890;SDS011;2971;52.420;7.080;2023-08-07T14:10:11;5.87;;;2.50;;
5890;SDS011;2971;52.420;7.080;2023-08-07T14:12:36;5.47;;;3.37;;
5890;SDS011;2971;52.420;7.080;2023-08-07T14:15:02;4.50;;;3.00;;
5890;SDS011;2971;52.420;7.080;2023-08-07T14:17:28;6.77;;;3.50;;
5890;SDS011;2971;52.420;7.080;2023-08-07T14:19:53;6.03;;;2.90;;
5890;SDS011;2971;52.420;7.080;2023-08-07T14:22:19;6.63;;;3.57;;
5890;SDS011;2971;52.420;7.080;2023-08-07T14:24:44;8.70;;;4.07;;
5890;SDS011;2971;52.420;7.080;2023-08-07T14:27:09;7.07;;;4.07;;
5890;SDS011;2971;52.420;7.080;2023-08-07T14:29:35;8.07;;;4.07;;
5890;SDS011;2971;52.420;7.080;2023-08-07T14:32:00;5.90;;;4.10;;
5890;SDS011;2971;52.420;7.080;2023-08-07T14:34:26;6.53;;;4.10;;
5890;SDS011;2971;52.420;7.080;2023-08-07T14:36:52;6.27;;;4.40;;
5890;SDS011;2971;52.420;7.080;2023-08-07T14:39:19;6.53;;;3.87;;
5890;SDS011;2971;52.420;7.080;2023-08-07T14:41:46;6.57;;;4.20;;
5890;SDS011;2971;52.420;7.080;2023-08-07T14:44:13;9.30;;;4.50;;
5890;SDS011;2971;52.420;7.080;2023-08-07T14:46:38;7.50;;;4.30;;
5890;SDS011;2971;52.420;7.080;2023-08-07T14:49:04;5.97;;;4.30;;
5890;SDS011;2971;52.420;7.080;2023-08-07T14:51:29;8.73;;;4.00;;
5890;SDS011;2971;52.420;7.080;2023-08-07T14:53:54;7.83;;;4.30;;
5890;SDS011;2971;52.420;7.080;2023-08-07T14:56:20;7.47;;;4.23;;
5890;SDS011;2971;52.420;7.080;2023-08-07T14:58:45;8.53;;;4.00;;
5890;SDS011;2971;52.420;7.080;2023-08-07T15:01:11;7.50;;;4.00;;
5890;SDS011;2971;52.420;7.080;2023-08-07T15:03:36;7.37;;;4.53;;
5890;SDS011;2971;52.420;7.080;2023-08-07T15:06:01;6.37;;;4.03;;
5890;SDS011;2971;52.420;7.080;2023-08-07T15:08:27;10.80;;;4.63;;
5890;SDS011;2971;52.420;7.080;2023-08-07T15:10:52;7.60;;;3.97;;
5890;SDS011;2971;52.420;7.080;2023-08-07T15:13:18;10.83;;;4.33;;